createdAt,value
2023-08-05T00:01:53.227Z,3.85
2023-08-05T00:04:20.190Z,4.05
2023-08-05T00:06:47.198Z,3.60
2023-08-05T00:09:14.238Z,3.38
2023-08-05T00:11:41.217Z,3.40
2023-08-05T00:14:08.182Z,3.40
2023-08-05T00:16:35.161Z,3.70
2023-08-05T00:19:02.212Z,3.10
2023-08-05T00:21:29.161Z,3.47
2023-08-05T00:23:56.081Z,3.03
2023-08-05T00:26:23.048Z,2.90
2023-08-05T00:28:49.984Z,3.33
2023-08-05T00:31:16.994Z,3.38
2023-08-05T00:33:43.915Z,3.22
2023-08-05T00:36:10.863Z,3.38
2023-08-05T00:38:37.804Z,3.70
2023-08-05T00:41:04.753Z,3.40
2023-08-05T00:43:32.260Z,3.42
2023-08-05T00:46:01.712Z,3.33
2023-08-05T00:48:29.054Z,3.60
2023-08-05T00:50:56.554Z,3.28
2023-08-05T00:53:24.728Z,3.33
2023-08-05T00:55:53.219Z,3.72
2023-08-05T00:58:23.653Z,3.50
2023-08-05T01:00:51.059Z,3.80
2023-08-05T01:03:18.378Z,4.00
2023-08-05T01:05:48.063Z,3.75
2023-08-05T01:08:15.420Z,4.05
2023-08-05T01:10:43.503Z,3.45
2023-08-05T01:13:10.828Z,4.07
2023-08-05T01:15:37.857Z,3.95
2023-08-05T01:18:07.951Z,4.25
2023-08-05T01:20:46.413Z,4.47
2023-08-05T01:23:45.207Z,4.20
2023-08-05T01:26:12.442Z,4.65
2023-08-05T01:28:39.605Z,4.57
2023-08-05T01:31:08.246Z,4.95
2023-08-05T01:33:37.433Z,4.60
2023-08-05T01:36:04.463Z,5.20
2023-08-05T01:38:31.417Z,5.18
2023-08-05T01:40:58.368Z,5.32
2023-08-05T01:43:25.492Z,5.38
2023-08-05T01:45:52.420Z,5.63
2023-08-05T01:48:19.329Z,5.82
2023-08-05T01:50:46.248Z,5.28
2023-08-05T01:53:13.223Z,5.78
2023-08-05T01:55:41.286Z,6.07
2023-08-05T01:58:08.263Z,6.00
2023-08-05T02:00:35.258Z,6.22
2023-08-05T02:03:02.278Z,6.55
2023-08-05T02:05:29.321Z,6.72
2023-08-05T02:07:56.269Z,6.85
2023-08-05T02:10:23.337Z,7.10
2023-08-05T02:12:50.279Z,6.80
2023-08-05T02:15:17.289Z,6.47
2023-08-05T02:17:44.279Z,7.68
2023-08-05T02:20:12.195Z,7.50
2023-08-05T02:22:39.108Z,8.05
2023-08-05T02:25:06.617Z,7.57
2023-08-05T02:27:33.636Z,7.82
2023-08-05T02:30:00.568Z,7.30
2023-08-05T02:32:27.532Z,7.80
2023-08-05T02:34:54.489Z,8.65
2023-08-05T02:37:21.466Z,8.35
2023-08-05T02:39:48.484Z,8.10
2023-08-05T02:42:15.426Z,8.30
2023-08-05T02:44:42.402Z,8.00
2023-08-05T02:47:09.298Z,8.32
2023-08-05T02:49:36.254Z,8.10
2023-08-05T02:52:03.736Z,8.48
2023-08-05T02:54:30.747Z,9.02
2023-08-05T02:56:57.638Z,9.13
2023-08-05T02:59:24.700Z,9.30
2023-08-05T03:01:51.851Z,9.65
2023-08-05T03:04:18.840Z,9.25
2023-08-05T03:06:45.803Z,10.38
2023-08-05T03:09:12.809Z,10.25
2023-08-05T03:11:39.766Z,11.10
2023-08-05T03:14:06.746Z,10.73
2023-08-05T03:16:34.016Z,13.18
2023-08-05T03:19:01.033Z,13.63
2023-08-05T03:21:27.963Z,14.18
2023-08-05T03:23:55.017Z,15.10
2023-08-05T03:26:22.053Z,16.67
2023-08-05T03:28:48.994Z,16.83
2023-08-05T03:31:16.091Z,17.15
2023-08-05T03:33:43.705Z,18.17
2023-08-05T03:36:10.690Z,17.02
2023-08-05T03:38:37.862Z,18.38
2023-08-05T03:41:05.944Z,18.35
2023-08-05T03:43:33.851Z,18.40
2023-08-05T03:46:00.856Z,17.95
2023-08-05T03:48:27.984Z,18.08
2023-08-05T03:50:54.929Z,17.98
2023-08-05T03:53:23.210Z,17.25
2023-08-05T03:55:50.161Z,18.63
2023-08-05T03:58:20.962Z,17.80
2023-08-05T04:00:48.727Z,17.75
2023-08-05T04:03:16.040Z,16.70
2023-08-05T04:05:43.001Z,16.17
2023-08-05T04:08:10.057Z,16.63
2023-08-05T04:10:39.710Z,16.25
2023-08-05T04:13:06.699Z,16.85
2023-08-05T04:15:36.433Z,17.17
2023-08-05T04:18:04.584Z,16.70
2023-08-05T04:20:32.094Z,16.45
2023-08-05T04:22:59.076Z,15.82
2023-08-05T04:25:26.460Z,15.45
2023-08-05T04:27:53.396Z,14.07
2023-08-05T04:30:20.369Z,14.82
2023-08-05T04:32:47.421Z,14.45
2023-08-05T04:35:14.467Z,15.70
2023-08-05T04:37:42.048Z,15.23
2023-08-05T04:40:11.068Z,14.93
2023-08-05T04:42:38.054Z,14.73
2023-08-05T04:45:05.480Z,14.35
2023-08-05T04:47:32.450Z,14.38
2023-08-05T04:49:59.516Z,13.35
2023-08-05T04:52:27.701Z,14.18
2023-08-05T04:54:54.686Z,13.18
2023-08-05T04:57:21.651Z,13.93
2023-08-05T04:59:49.000Z,12.77
2023-08-05T05:02:16.319Z,13.90
2023-08-05T05:04:43.800Z,13.52
2023-08-05T05:07:10.895Z,13.45
2023-08-05T05:09:37.938Z,14.55
2023-08-05T05:12:05.735Z,13.05
2023-08-05T05:14:34.665Z,13.02
2023-08-05T05:17:01.684Z,13.23
2023-08-05T05:19:28.644Z,11.70
2023-08-05T05:21:56.377Z,11.27
2023-08-05T05:24:23.500Z,11.30
2023-08-05T05:26:50.793Z,11.02
2023-08-05T05:29:21.267Z,12.32
2023-08-05T05:31:48.788Z,11.00
2023-08-05T05:34:15.829Z,11.45
2023-08-05T05:36:42.778Z,11.25
2023-08-05T05:39:10.114Z,11.93
2023-08-05T05:41:37.044Z,12.88
2023-08-05T05:44:05.396Z,12.30
2023-08-05T05:46:33.600Z,12.23
2023-08-05T05:49:01.333Z,12.02
2023-08-05T05:51:28.339Z,11.45
2023-08-05T05:53:56.996Z,11.32
2023-08-05T05:56:24.256Z,12.00
2023-08-05T05:58:52.241Z,11.13
2023-08-05T06:01:19.280Z,11.00
2023-08-05T06:03:46.464Z,9.63
2023-08-05T06:06:13.958Z,9.95
2023-08-05T06:08:40.922Z,9.75
2023-08-05T06:11:08.586Z,10.77
2023-08-05T06:13:36.712Z,10.50
2023-08-05T06:16:03.818Z,9.40
2023-08-05T06:18:30.880Z,8.68
2023-08-05T06:20:58.008Z,9.75
2023-08-05T06:23:25.038Z,9.60
2023-08-05T06:25:51.979Z,8.57
2023-08-05T06:28:19.011Z,8.88
2023-08-05T06:30:47.006Z,9.25
2023-08-05T06:33:14.476Z,8.82
2023-08-05T06:35:42.108Z,7.55
2023-08-05T06:38:09.072Z,7.45
2023-08-05T06:40:36.071Z,7.47
2023-08-05T06:43:03.103Z,7.18
2023-08-05T06:45:30.490Z,7.28
2023-08-05T06:47:57.432Z,7.22
2023-08-05T06:50:24.466Z,7.20
2023-08-05T06:52:51.401Z,6.93
2023-08-05T06:55:20.315Z,6.55
2023-08-05T06:57:50.208Z,6.43
2023-08-05T07:00:18.166Z,6.60
2023-08-05T07:02:45.175Z,5.95
2023-08-05T07:05:12.333Z,5.57
2023-08-05T07:07:39.379Z,6.20
2023-08-05T07:10:09.317Z,4.85
2023-08-05T07:12:36.637Z,5.00
2023-08-05T07:15:05.633Z,5.03
2023-08-05T07:17:33.688Z,4.93
2023-08-05T07:20:00.821Z,4.07
2023-08-05T07:22:27.804Z,3.83
2023-08-05T07:24:57.965Z,3.83
2023-08-05T07:27:25.156Z,4.20
2023-08-05T07:29:52.223Z,3.67
2023-08-05T07:32:19.217Z,4.00
2023-08-05T07:34:47.852Z,4.13
2023-08-05T07:37:16.116Z,3.70
2023-08-05T07:39:47.774Z,3.72
2023-08-05T07:42:16.437Z,3.92
2023-08-05T07:47:19.298Z,3.42
2023-08-05T07:49:46.565Z,2.80
2023-08-05T07:52:14.245Z,2.90
2023-08-05T07:54:41.826Z,3.38
2023-08-05T07:57:10.307Z,3.22
2023-08-05T07:59:37.346Z,3.35
2023-08-05T08:02:06.574Z,3.15
2023-08-05T08:04:35.813Z,3.67
2023-08-05T08:07:03.003Z,3.30
2023-08-05T08:09:29.998Z,3.45
2023-08-05T08:11:57.241Z,3.20
2023-08-05T08:14:24.476Z,2.75
2023-08-05T08:16:51.419Z,3.03
2023-08-05T08:22:01.771Z,3.00
2023-08-05T08:24:28.861Z,2.80
2023-08-05T08:26:55.847Z,3.00
2023-08-05T08:29:22.965Z,2.80
2023-08-05T08:31:50.234Z,2.90
2023-08-05T08:34:19.145Z,2.58
2023-08-05T08:36:46.075Z,2.63
2023-08-05T08:39:13.020Z,2.83
2023-08-05T08:41:45.148Z,2.78
2023-08-05T08:44:14.806Z,2.70
2023-08-05T08:46:41.909Z,2.72
2023-08-05T08:49:09.617Z,2.60
2023-08-05T08:51:38.514Z,2.70
2023-08-05T08:54:09.133Z,2.05
2023-08-05T08:56:37.335Z,2.58
2023-08-05T08:59:04.373Z,2.00
2023-08-05T09:01:32.033Z,2.00
2023-08-05T09:04:00.489Z,2.00
2023-08-05T09:06:28.354Z,1.80
2023-08-05T09:08:55.464Z,2.00
2023-08-05T09:11:22.533Z,1.92
2023-08-05T09:13:51.435Z,1.88
2023-08-05T09:16:18.426Z,1.90
2023-08-05T09:18:57.442Z,1.92
2023-08-05T09:21:28.018Z,2.03
2023-08-05T09:23:56.594Z,1.83
2023-08-05T09:26:31.071Z,1.75
2023-08-05T09:28:59.389Z,1.90
2023-08-05T09:31:27.174Z,1.98
2023-08-05T09:33:54.225Z,1.85
2023-08-05T09:36:24.388Z,1.73
2023-08-05T09:39:06.635Z,1.88
2023-08-05T09:41:36.670Z,1.73
2023-08-05T09:44:06.239Z,2.00
2023-08-05T09:46:42.665Z,1.70
2023-08-05T09:49:12.016Z,1.90
2023-08-05T09:51:43.577Z,2.00
2023-08-05T09:54:18.907Z,1.83
2023-08-05T09:56:46.766Z,1.83
2023-08-05T09:59:17.111Z,1.73
2023-08-05T10:01:47.380Z,1.60
2023-08-05T10:04:17.494Z,1.70
2023-08-05T10:06:45.343Z,1.85
2023-08-05T10:09:12.784Z,1.80
2023-08-05T10:11:40.779Z,1.90
2023-08-05T10:14:08.824Z,1.98
2023-08-05T10:16:39.192Z,1.90
2023-08-05T10:19:06.228Z,1.75
2023-08-05T10:21:38.264Z,1.70
2023-08-05T10:24:05.809Z,1.65
2023-08-05T10:27:09.909Z,2.03
2023-08-05T10:29:55.353Z,1.83
2023-08-05T10:32:34.709Z,1.70
2023-08-05T10:35:29.410Z,1.70
2023-08-05T10:38:13.099Z,2.00
2023-08-05T10:40:52.583Z,2.33
2023-08-05T10:43:34.359Z,1.83
2023-08-05T10:46:07.267Z,1.98
2023-08-05T10:48:48.451Z,1.98
2023-08-05T10:51:19.663Z,1.65
2023-08-05T10:54:01.012Z,1.60
2023-08-05T10:56:37.434Z,1.77
2023-08-05T10:59:05.962Z,1.77
2023-08-05T11:01:57.488Z,2.10
2023-08-05T11:04:34.579Z,1.70
2023-08-05T11:07:04.093Z,1.85
2023-08-05T11:09:34.638Z,1.83
2023-08-05T11:12:02.089Z,1.88
2023-08-05T11:14:29.640Z,1.90
2023-08-05T11:17:08.838Z,1.83
2023-08-05T11:19:54.276Z,2.00
2023-08-05T11:22:33.832Z,1.67
2023-08-05T11:25:02.642Z,1.70
2023-08-05T11:27:36.198Z,1.80
2023-08-05T11:30:19.506Z,2.22
2023-08-05T11:32:59.767Z,1.98
2023-08-05T11:35:27.749Z,1.98
2023-08-05T11:37:55.119Z,1.73
2023-08-05T11:40:23.460Z,1.88
2023-08-05T11:42:50.832Z,1.63
2023-08-05T11:45:18.138Z,1.60
2023-08-05T11:47:46.088Z,1.77
2023-08-05T11:50:13.900Z,1.50
2023-08-05T11:52:41.217Z,1.70
2023-08-05T11:55:09.662Z,1.60
2023-08-05T11:57:36.956Z,1.45
2023-08-05T12:00:06.599Z,2.05
2023-08-05T12:02:38.143Z,3.25
2023-08-05T12:05:09.423Z,1.80
2023-08-05T12:07:42.644Z,2.58
2023-08-05T12:10:18.104Z,1.70
2023-08-05T12:12:47.269Z,1.60
2023-08-05T12:15:29.744Z,1.80
2023-08-05T12:18:03.253Z,1.75
2023-08-05T12:20:37.626Z,2.22
2023-08-05T12:23:06.889Z,3.70
2023-08-05T12:25:34.874Z,2.40
2023-08-05T12:28:05.780Z,3.03
2023-08-05T12:30:33.667Z,3.13
2023-08-05T12:33:00.739Z,2.20
2023-08-05T12:35:27.994Z,2.50
2023-08-05T12:37:55.013Z,2.42
2023-08-05T12:40:22.069Z,2.42
2023-08-05T12:42:49.119Z,2.50
2023-08-05T12:45:17.668Z,2.20
2023-08-05T12:50:33.268Z,2.38
2023-08-05T12:53:00.968Z,2.10
2023-08-05T12:55:28.262Z,2.50
2023-08-05T12:57:57.952Z,2.67
2023-08-05T13:00:28.174Z,2.60
2023-08-05T13:02:56.151Z,2.30
2023-08-05T13:05:23.980Z,2.05
2023-08-05T13:07:51.716Z,2.22
2023-08-05T13:10:19.084Z,2.20
2023-08-05T13:12:46.691Z,2.17
2023-08-05T13:15:14.728Z,2.30
2023-08-05T13:17:42.077Z,2.10
2023-08-05T13:22:43.657Z,1.67
2023-08-05T13:25:10.936Z,1.95
2023-08-05T13:27:37.990Z,1.85
2023-08-05T13:30:05.409Z,1.65
2023-08-05T13:32:32.420Z,1.90
2023-08-05T13:35:03.415Z,1.73
2023-08-05T13:40:04.127Z,2.63
2023-08-05T13:42:31.226Z,2.30
2023-08-05T13:44:58.220Z,2.20
2023-08-05T13:47:25.246Z,1.90
2023-08-05T13:49:54.558Z,2.70
2023-08-05T13:52:21.589Z,2.00
2023-08-05T13:54:48.566Z,2.05
2023-08-05T13:57:15.733Z,2.20
2023-08-05T13:59:42.807Z,2.10
2023-08-05T14:02:09.806Z,2.00
2023-08-05T14:04:41.673Z,2.22
2023-08-05T14:07:08.807Z,2.10
2023-08-05T14:09:37.165Z,2.17
2023-08-05T14:12:04.625Z,2.17
2023-08-05T14:14:31.552Z,2.08
2023-08-05T14:16:58.470Z,2.60
2023-08-05T14:19:26.958Z,2.10
2023-08-05T14:21:54.054Z,1.95
2023-08-05T14:24:21.021Z,2.35
2023-08-05T14:26:47.973Z,2.15
2023-08-05T14:29:14.979Z,1.83
2023-08-05T14:31:42.546Z,1.80
2023-08-05T14:34:10.664Z,1.83
2023-08-05T14:36:38.152Z,2.50
2023-08-05T14:39:14.314Z,2.28
2023-08-05T14:41:41.983Z,2.20
2023-08-05T14:44:09.298Z,2.33
2023-08-05T14:46:36.197Z,2.75
2023-08-05T14:49:05.266Z,2.65
2023-08-05T14:51:32.320Z,4.85
2023-08-05T14:54:06.864Z,3.65
2023-08-05T14:59:24.509Z,2.80
2023-08-05T15:01:53.096Z,3.00
2023-08-05T15:04:20.363Z,4.53
2023-08-05T15:06:47.712Z,4.20
2023-08-05T15:09:14.726Z,4.20
2023-08-05T15:11:41.769Z,3.40
2023-08-05T15:14:09.749Z,3.38
2023-08-05T15:16:36.702Z,3.50
2023-08-05T15:19:03.842Z,2.92
2023-08-05T15:21:32.178Z,2.90
2023-08-05T15:23:59.185Z,2.90
2023-08-05T15:26:27.390Z,3.20
2023-08-05T15:28:54.395Z,2.80
2023-08-05T15:31:21.527Z,2.88
2023-08-05T15:33:49.029Z,3.40
2023-08-05T15:36:18.018Z,3.15
2023-08-05T15:41:58.952Z,3.83
2023-08-05T15:44:25.889Z,4.30
2023-08-05T15:46:52.907Z,4.30
2023-08-05T15:49:22.661Z,3.92
2023-08-05T15:51:51.587Z,4.20
2023-08-05T15:57:06.477Z,4.85
2023-08-05T15:59:33.584Z,5.80
2023-08-05T16:02:00.576Z,6.07
2023-08-05T16:04:27.607Z,5.32
2023-08-05T16:06:56.991Z,5.00
2023-08-05T16:09:24.617Z,5.07
2023-08-05T16:11:51.977Z,4.30
2023-08-05T16:14:19.218Z,4.53
2023-08-05T16:16:48.244Z,4.60
2023-08-05T16:19:15.487Z,4.95
2023-08-05T16:21:45.053Z,4.45
2023-08-05T16:27:09.635Z,5.60
2023-08-05T16:29:47.810Z,5.10
2023-08-05T16:32:16.102Z,5.88
2023-08-05T16:34:43.780Z,5.65
2023-08-05T16:37:10.751Z,6.32
2023-08-05T16:39:37.680Z,6.60
2023-08-05T16:42:04.923Z,6.20
2023-08-05T16:44:33.099Z,5.72
2023-08-05T16:47:00.089Z,6.72
2023-08-05T16:49:27.224Z,7.05
2023-08-05T16:51:54.471Z,6.47
2023-08-05T16:54:21.612Z,6.60
2023-08-05T16:56:48.688Z,6.82
2023-08-05T17:02:21.181Z,7.57
2023-08-05T17:07:36.317Z,11.63
2023-08-05T17:12:46.371Z,11.80
2023-08-05T17:15:13.367Z,10.25
2023-08-05T17:32:04.813Z,6.68
2023-08-05T17:34:31.896Z,6.80
2023-08-05T17:36:59.076Z,6.20
2023-08-05T17:39:27.067Z,6.95
2023-08-05T17:41:54.592Z,7.00
2023-08-05T17:44:21.643Z,7.35
2023-08-05T17:46:48.575Z,8.27
2023-08-05T17:49:15.501Z,8.35
2023-08-05T17:51:42.473Z,9.55
2023-08-05T17:54:09.875Z,9.25
2023-08-05T17:56:36.773Z,9.30
2023-08-05T17:59:03.744Z,10.15
2023-08-05T18:01:30.678Z,9.70
2023-08-05T18:03:57.758Z,8.43
2023-08-05T18:06:25.094Z,8.02
2023-08-05T18:08:51.996Z,8.15
2023-08-05T18:11:42.150Z,7.97
2023-08-05T18:14:09.157Z,9.02
2023-08-05T18:16:36.179Z,9.00
2023-08-05T18:19:03.416Z,8.55
2023-08-05T18:21:30.334Z,8.45
2023-08-05T18:23:58.022Z,9.18
2023-08-05T18:26:25.119Z,9.00
2023-08-05T18:29:03.118Z,9.32
2023-08-05T18:31:30.307Z,9.38
2023-08-05T18:33:57.855Z,10.50
2023-08-05T18:36:25.053Z,10.30
2023-08-05T18:38:52.376Z,10.10
2023-08-05T18:41:19.402Z,10.65
2023-08-05T18:43:46.548Z,10.02
2023-08-05T18:46:13.752Z,10.27
2023-08-05T18:48:40.922Z,9.57
2023-08-05T18:51:08.033Z,8.95
2023-08-05T18:53:35.124Z,8.32
2023-08-05T18:56:02.569Z,7.28
2023-08-05T18:58:29.914Z,6.70
2023-08-05T19:00:56.947Z,6.70
2023-08-05T19:03:23.891Z,6.38
2023-08-05T19:05:58.347Z,7.55
2023-08-05T19:08:25.365Z,8.45
2023-08-05T19:10:52.337Z,8.35
2023-08-05T19:13:26.418Z,8.27
2023-08-05T19:16:04.278Z,8.57
2023-08-05T19:18:32.631Z,8.52
2023-08-05T19:21:07.500Z,8.82
2023-08-05T19:23:35.503Z,8.40
2023-08-05T19:26:07.737Z,8.52
2023-08-05T19:31:20.549Z,8.93
2023-08-05T19:34:05.723Z,8.43
2023-08-05T19:36:32.638Z,8.93
2023-08-05T19:39:00.848Z,8.40
2023-08-05T19:41:27.911Z,9.25
2023-08-05T19:43:54.896Z,8.38
2023-08-05T19:46:21.994Z,9.45
2023-08-05T19:48:49.078Z,9.65
2023-08-05T19:51:16.208Z,9.52
2023-08-05T19:53:47.262Z,9.95
2023-08-05T19:58:41.244Z,9.90
2023-08-05T20:01:10.553Z,10.50
2023-08-05T20:03:37.774Z,10.77
2023-08-05T20:06:05.209Z,9.73
2023-08-05T20:08:32.240Z,9.23
2023-08-05T20:10:59.149Z,8.43
2023-08-05T20:13:29.114Z,7.32
2023-08-05T20:16:02.274Z,7.15
2023-08-05T20:18:29.284Z,6.40
2023-08-05T20:20:56.905Z,6.18
2023-08-05T20:23:24.050Z,5.95
2023-08-05T20:25:51.319Z,5.93
2023-08-05T20:28:18.343Z,6.15
2023-08-05T20:30:45.293Z,5.53
2023-08-05T20:33:12.587Z,5.60
2023-08-05T20:35:41.456Z,6.15
2023-08-05T20:38:08.510Z,5.38
2023-08-05T20:40:37.841Z,5.20
2023-08-05T20:43:04.915Z,5.55
2023-08-05T20:45:37.331Z,4.97
2023-08-05T20:48:04.508Z,5.00
2023-08-05T20:50:34.793Z,4.78
2023-08-05T20:53:02.098Z,5.10
2023-08-05T20:55:32.349Z,4.70
2023-08-05T20:57:59.476Z,4.70
2023-08-05T21:00:26.383Z,5.15
2023-08-05T21:02:57.202Z,5.00
2023-08-05T21:05:24.329Z,4.90
2023-08-05T21:07:51.257Z,4.50
2023-08-05T21:10:18.181Z,4.72
2023-08-05T21:12:45.271Z,4.35
2023-08-05T21:15:12.213Z,4.40
2023-08-05T21:17:39.238Z,3.90
2023-08-05T21:20:07.020Z,4.35
2023-08-05T21:28:00.154Z,4.65
2023-08-05T21:30:27.247Z,4.80
2023-08-05T21:32:54.318Z,4.93
2023-08-05T21:35:21.703Z,4.90
2023-08-05T21:37:48.661Z,5.28
2023-08-05T21:40:15.730Z,5.10
2023-08-05T21:42:44.402Z,5.15
2023-08-05T21:45:15.149Z,5.35
2023-08-05T21:47:42.892Z,5.40
2023-08-05T21:50:10.314Z,5.30
2023-08-05T21:52:37.474Z,6.25
2023-08-05T21:55:04.539Z,5.95
2023-08-05T21:57:31.529Z,5.93
2023-08-05T21:59:58.517Z,6.82
2023-08-05T22:02:25.549Z,6.13
2023-08-05T22:04:53.258Z,6.25
2023-08-05T22:07:20.958Z,5.78
2023-08-05T22:09:48.033Z,6.40
2023-08-05T22:12:15.039Z,6.07
2023-08-05T22:14:43.219Z,6.20
2023-08-05T22:17:10.147Z,6.70
2023-08-05T22:19:37.098Z,6.50
2023-08-05T22:22:04.282Z,6.10
2023-08-05T22:24:41.294Z,6.07
2023-08-05T22:27:10.341Z,6.55
2023-08-05T22:29:40.835Z,6.20
2023-08-05T22:32:08.255Z,6.28
2023-08-05T22:34:37.350Z,5.93
2023-08-05T22:37:06.144Z,6.07
2023-08-05T22:39:33.154Z,5.80
2023-08-05T22:42:00.269Z,5.60
2023-08-05T22:44:27.299Z,5.68
2023-08-05T22:46:54.973Z,5.30
2023-08-05T22:49:22.113Z,5.55
2023-08-05T22:51:49.187Z,5.50
2023-08-05T22:54:16.231Z,5.50
2023-08-05T22:56:43.882Z,5.15
2023-08-05T22:59:10.822Z,5.65
2023-08-05T23:01:38.012Z,5.82
2023-08-05T23:04:05.143Z,5.00
2023-08-05T23:06:32.148Z,5.20
2023-08-05T23:08:59.067Z,4.88
2023-08-05T23:11:26.016Z,5.60
2023-08-05T23:13:52.920Z,5.15
2023-08-05T23:16:19.898Z,4.95
2023-08-05T23:18:50.415Z,5.30
2023-08-05T23:21:17.755Z,5.40
2023-08-05T23:23:45.100Z,5.53
2023-08-05T23:26:12.059Z,5.22
2023-08-05T23:28:39.098Z,5.60
2023-08-05T23:31:06.840Z,5.07
2023-08-05T23:33:34.176Z,5.57
2023-08-05T23:36:01.824Z,5.78
2023-08-05T23:38:28.786Z,5.50
2023-08-05T23:40:55.725Z,5.65
2023-08-05T23:43:22.663Z,5.70
2023-08-05T23:45:50.932Z,6.22
2023-08-05T23:48:18.146Z,5.72
2023-08-05T23:50:46.040Z,6.45
2023-08-05T23:53:13.058Z,6.03
2023-08-05T23:55:48.372Z,5.70
2023-08-05T23:58:15.554Z,6.05
